sensor_id;sensor_type;location;lat;lon;timestamp;pressure;altitude;pressure_sealevel;temperature;humidity
9139;BME280;4604;48.616;9.548;2024-01-11T00:00:39;97693.84;;;-5.70;95.96
9139;BME280;4604;48.616;9.548;2024-01-11T00:03:14;97689.72;;;-5.82;96.90
9139;BME280;4604;48.616;9.548;2024-01-11T00:05:46;97736.41;;;-5.49;97.76
9139;BME280;4604;48.616;9.548;2024-01-11T00:08:15;97697.31;;;-5.73;98.44
9139;BME280;4604;48.616;9.548;2024-01-11T00:10:47;97703.25;;;-5.69;98.90
9139;BME280;4604;48.616;9.548;2024-01-11T00:13:24;97692.19;;;-5.74;99.40
9139;BME280;4604;48.616;9.548;2024-01-11T00:16:08;97767.88;;;-5.32;99.27
9139;BME280;4604;48.616;9.548;2024-01-11T00:19:14;97696.50;;;-5.76;98.66
9139;BME280;4604;48.616;9.548;2024-01-11T00:22:07;97750.09;;;-5.49;98.29
9139;BME280;4604;48.616;9.548;2024-01-11T00:24:34;97715.22;;;-5.68;98.05
9139;BME280;4604;48.616;9.548;2024-01-11T00:30:46;97707.72;;;-5.84;97.44
9139;BME280;4604;48.616;9.548;2024-01-11T00:33:34;97789.34;;;-5.34;96.70
9139;BME280;4604;48.616;9.548;2024-01-11T00:36:22;97723.03;;;-5.74;96.38
9139;BME280;4604;48.616;9.548;2024-01-11T00:39:09;97699.28;;;-5.93;96.72
9139;BME280;4604;48.616;9.548;2024-01-11T00:41:48;97754.66;;;-5.68;96.86
9139;BME280;4604;48.616;9.548;2024-01-11T00:44:20;97752.91;;;-5.66;96.85
9139;BME280;4604;48.616;9.548;2024-01-11T00:46:49;97783.56;;;-5.50;97.19
9139;BME280;4604;48.616;9.548;2024-01-11T00:49:19;97719.78;;;-5.90;97.11
9139;BME280;4604;48.616;9.548;2024-01-11T00:51:46;97706.88;;;-5.86;97.81
9139;BME280;4604;48.616;9.548;2024-01-11T00:54:12;97754.59;;;-5.63;98.00
9139;BME280;4604;48.616;9.548;2024-01-11T00:56:39;97709.50;;;-5.90;98.31
9139;BME280;4604;48.616;9.548;2024-01-11T00:59:08;97751.22;;;-5.68;98.59
9139;BME280;4604;48.616;9.548;2024-01-11T01:01:40;97716.41;;;-5.92;98.73
9139;BME280;4604;48.616;9.548;2024-01-11T01:04:08;97785.22;;;-5.46;98.79
9139;BME280;4604;48.616;9.548;2024-01-11T01:06:36;97784.47;;;-5.53;98.52
9139;BME280;4604;48.616;9.548;2024-01-11T01:09:03;97791.25;;;-5.46;98.28
9139;BME280;4604;48.616;9.548;2024-01-11T01:11:30;97790.44;;;-5.51;98.16
9139;BME280;4604;48.616;9.548;2024-01-11T01:13:56;97782.75;;;-5.51;97.87
9139;BME280;4604;48.616;9.548;2024-01-11T01:16:23;97783.66;;;-5.56;97.94
9139;BME280;4604;48.616;9.548;2024-01-11T01:18:53;97777.75;;;-5.63;97.66
9139;BME280;4604;48.616;9.548;2024-01-11T01:21:20;97759.81;;;-5.69;97.69
9139;BME280;4604;48.616;9.548;2024-01-11T01:23:52;97738.50;;;-5.79;96.64
9139;BME280;4604;48.616;9.548;2024-01-11T01:26:23;97740.34;;;-5.87;96.70
9139;BME280;4604;48.616;9.548;2024-01-11T01:28:53;97736.88;;;-5.85;96.61
9139;BME280;4604;48.616;9.548;2024-01-11T01:31:22;97764.16;;;-5.73;96.52
9139;BME280;4604;48.616;9.548;2024-01-11T01:33:48;97775.13;;;-5.60;96.43
9139;BME280;4604;48.616;9.548;2024-01-11T01:36:15;97778.56;;;-5.61;96.77
9139;BME280;4604;48.616;9.548;2024-01-11T01:38:42;97754.69;;;-5.71;96.92
9139;BME280;4604;48.616;9.548;2024-01-11T01:41:10;97773.50;;;-5.67;97.36
9139;BME280;4604;48.616;9.548;2024-01-11T01:43:37;97767.56;;;-5.72;97.88
9139;BME280;4604;48.616;9.548;2024-01-11T01:46:05;97787.09;;;-5.59;98.08
9139;BME280;4604;48.616;9.548;2024-01-11T01:48:32;97786.25;;;-5.58;98.34
9139;BME280;4604;48.616;9.548;2024-01-11T01:51:02;97753.06;;;-5.78;98.18
9139;BME280;4604;48.616;9.548;2024-01-11T01:53:39;97746.22;;;-5.77;98.28
9139;BME280;4604;48.616;9.548;2024-01-11T01:56:10;97782.84;;;-5.60;98.55
9139;BME280;4604;48.616;9.548;2024-01-11T01:58:37;97768.41;;;-5.70;99.08
9139;BME280;4604;48.616;9.548;2024-01-11T02:01:07;97792.25;;;-5.57;99.36
9139;BME280;4604;48.616;9.548;2024-01-11T02:03:35;97797.22;;;-5.47;99.89
9139;BME280;4604;48.616;9.548;2024-01-11T02:06:04;97797.22;;;-5.44;100.00
9139;BME280;4604;48.616;9.548;2024-01-11T02:08:31;97789.53;;;-5.47;100.00
9139;BME280;4604;48.616;9.548;2024-01-11T02:10:59;97807.41;;;-5.39;100.00
9139;BME280;4604;48.616;9.548;2024-01-11T02:13:27;97764.16;;;-5.74;100.00
9139;BME280;4604;48.616;9.548;2024-01-11T02:15:54;97779.44;;;-5.64;100.00
9139;BME280;4604;48.616;9.548;2024-01-11T02:18:21;97812.66;;;-5.45;100.00
9139;BME280;4604;48.616;9.548;2024-01-11T02:20:48;97788.03;;;-5.63;100.00
9139;BME280;4604;48.616;9.548;2024-01-11T02:23:17;97813.50;;;-5.46;100.00
9139;BME280;4604;48.616;9.548;2024-01-11T02:25:46;97815.28;;;-5.51;100.00
9139;BME280;4604;48.616;9.548;2024-01-11T02:28:13;97812.69;;;-5.48;100.00
9139;BME280;4604;48.616;9.548;2024-01-11T02:30:40;97816.22;;;-5.55;100.00
9139;BME280;4604;48.616;9.548;2024-01-11T02:33:08;97812.84;;;-5.61;100.00
9139;BME280;4604;48.616;9.548;2024-01-11T02:35:35;97812.91;;;-5.68;100.00
9139;BME280;4604;48.616;9.548;2024-01-11T02:38:05;97816.38;;;-5.69;100.00
9139;BME280;4604;48.616;9.548;2024-01-11T02:40:33;97815.53;;;-5.70;99.34
9139;BME280;4604;48.616;9.548;2024-01-11T02:43:08;97808.72;;;-5.74;98.70
9139;BME280;4604;48.616;9.548;2024-01-11T02:45:34;97812.13;;;-5.73;98.41
9139;BME280;4604;48.616;9.548;2024-01-11T02:48:01;97814.69;;;-5.73;98.43
9139;BME280;4604;48.616;9.548;2024-01-11T02:50:27;97823.28;;;-5.76;98.78
9139;BME280;4604;48.616;9.548;2024-01-11T02:52:54;97815.59;;;-5.76;98.91
9139;BME280;4604;48.616;9.548;2024-01-11T02:55:20;97822.50;;;-5.79;99.15
9139;BME280;4604;48.616;9.548;2024-01-11T02:57:47;97815.63;;;-5.77;99.14
9139;BME280;4604;48.616;9.548;2024-01-11T03:00:15;97820.72;;;-5.76;98.85
9139;BME280;4604;48.616;9.548;2024-01-11T03:02:42;97825.84;;;-5.73;99.43
9139;BME280;4604;48.616;9.548;2024-01-11T03:05:09;97816.31;;;-5.66;99.38
9139;BME280;4604;48.616;9.548;2024-01-11T03:07:36;97814.75;;;-5.76;99.76
9139;BME280;4604;48.616;9.548;2024-01-11T03:10:03;97815.59;;;-5.76;99.38
9139;BME280;4604;48.616;9.548;2024-01-11T03:12:29;97814.81;;;-5.83;99.37
9139;BME280;4604;48.616;9.548;2024-01-11T03:14:56;97791.78;;;-5.93;99.21
9139;BME280;4604;48.616;9.548;2024-01-11T03:17:24;97800.31;;;-5.88;98.67
9139;BME280;4604;48.616;9.548;2024-01-11T03:19:51;97780.00;;;-6.10;98.27
9139;BME280;4604;48.616;9.548;2024-01-11T03:22:17;97794.44;;;-5.95;97.77
9139;BME280;4604;48.616;9.548;2024-01-11T03:24:44;97788.47;;;-5.97;97.48
9139;BME280;4604;48.616;9.548;2024-01-11T03:27:11;97791.03;;;-5.98;97.42
9139;BME280;4604;48.616;9.548;2024-01-11T03:29:40;97786.78;;;-6.01;97.40
9139;BME280;4604;48.616;9.548;2024-01-11T03:32:07;97789.41;;;-6.06;97.18
9139;BME280;4604;48.616;9.548;2024-01-11T03:34:35;97785.94;;;-6.01;96.66
9139;BME280;4604;48.616;9.548;2024-01-11T03:37:02;97769.81;;;-6.16;96.73
9139;BME280;4604;48.616;9.548;2024-01-11T03:39:28;97782.56;;;-6.08;96.67
9139;BME280;4604;48.616;9.548;2024-01-11T03:41:55;97735.88;;;-6.46;96.16
9139;BME280;4604;48.616;9.548;2024-01-11T03:44:22;97793.78;;;-6.14;96.03
9139;BME280;4604;48.616;9.548;2024-01-11T03:47:24;97786.06;;;-6.17;96.23
9139;BME280;4604;48.616;9.548;2024-01-11T03:50:09;97764.81;;;-6.30;96.58
9139;BME280;4604;48.616;9.548;2024-01-11T03:52:52;97757.06;;;-6.25;96.40
9139;BME280;4604;48.616;9.548;2024-01-11T03:55:19;97705.22;;;-6.61;96.64
9139;BME280;4604;48.616;9.548;2024-01-11T03:57:57;97719.69;;;-6.51;96.88
9139;BME280;4604;48.616;9.548;2024-01-11T04:00:45;97734.06;;;-6.37;97.12
9139;BME280;4604;48.616;9.548;2024-01-11T04:03:17;97718.00;;;-6.55;97.02
9139;BME280;4604;48.616;9.548;2024-01-11T04:05:49;97701.75;;;-6.57;96.94
9139;BME280;4604;48.616;9.548;2024-01-11T04:08:17;97707.72;;;-6.55;97.17
9139;BME280;4604;48.616;9.548;2024-01-11T04:11:00;97742.53;;;-6.29;97.01
9139;BME280;4604;48.616;9.548;2024-01-11T04:13:37;97693.25;;;-6.62;96.68
9139;BME280;4604;48.616;9.548;2024-01-11T04:16:05;97687.22;;;-6.59;96.55
9139;BME280;4604;48.616;9.548;2024-01-11T04:18:34;97765.66;;;-6.29;96.75
9139;BME280;4604;48.616;9.548;2024-01-11T04:21:02;97717.13;;;-6.52;96.73
9139;BME280;4604;48.616;9.548;2024-01-11T04:23:32;97772.38;;;-6.16;96.97
9139;BME280;4604;48.616;9.548;2024-01-11T04:26:03;97710.38;;;-6.62;96.82
9139;BME280;4604;48.616;9.548;2024-01-11T04:28:44;97709.53;;;-6.66;97.04
9139;BME280;4604;48.616;9.548;2024-01-11T04:31:14;97732.47;;;-6.49;97.36
9139;BME280;4604;48.616;9.548;2024-01-11T04:33:53;97718.88;;;-6.57;97.75
9139;BME280;4604;48.616;9.548;2024-01-11T04:36:21;97747.88;;;-6.46;98.41
9139;BME280;4604;48.616;9.548;2024-01-11T04:38:49;97722.28;;;-6.57;99.23
9139;BME280;4604;48.616;9.548;2024-01-11T04:41:16;97786.16;;;-6.21;99.87
9139;BME280;4604;48.616;9.548;2024-01-11T04:43:43;97793.78;;;-6.15;99.94
9139;BME280;4604;48.616;9.548;2024-01-11T04:46:14;97791.22;;;-6.17;99.83
9139;BME280;4604;48.616;9.548;2024-01-11T04:48:41;97780.19;;;-6.25;99.24
9139;BME280;4604;48.616;9.548;2024-01-11T04:51:08;97773.41;;;-6.32;98.99
9139;BME280;4604;48.616;9.548;2024-01-11T04:53:37;97793.91;;;-6.29;98.22
9139;BME280;4604;48.616;9.548;2024-01-11T04:56:06;97792.25;;;-6.35;98.47
9139;BME280;4604;48.616;9.548;2024-01-11T04:58:33;97773.50;;;-6.43;97.83
9139;BME280;4604;48.616;9.548;2024-01-11T05:01:00;97772.66;;;-6.43;97.52
9139;BME280;4604;48.616;9.548;2024-01-11T05:03:28;97784.56;;;-6.33;97.21
9139;BME280;4604;48.616;9.548;2024-01-11T05:05:55;97776.88;;;-6.38;96.93
9139;BME280;4604;48.616;9.548;2024-01-11T05:08:22;97780.31;;;-6.39;96.91
9139;BME280;4604;48.616;9.548;2024-01-11T05:10:50;97783.72;;;-6.34;96.60
9139;BME280;4604;48.616;9.548;2024-01-11T05:13:17;97781.97;;;-6.33;96.61
9139;BME280;4604;48.616;9.548;2024-01-11T05:15:44;97749.69;;;-6.56;96.59
9139;BME280;4604;48.616;9.548;2024-01-11T05:18:10;97783.75;;;-6.41;96.83
9139;BME280;4604;48.616;9.548;2024-01-11T05:20:37;97788.88;;;-6.41;96.70
9139;BME280;4604;48.616;9.548;2024-01-11T05:23:04;97781.19;;;-6.40;96.60
9139;BME280;4604;48.616;9.548;2024-01-11T05:25:31;97784.63;;;-6.41;96.40
9139;BME280;4604;48.616;9.548;2024-01-11T05:28:00;97787.19;;;-6.42;95.99
9139;BME280;4604;48.616;9.548;2024-01-11T05:30:27;97791.53;;;-6.46;96.05
9139;BME280;4604;48.616;9.548;2024-01-11T05:32:54;97791.53;;;-6.46;95.97
9139;BME280;4604;48.616;9.548;2024-01-11T05:35:20;97787.31;;;-6.53;96.24
9139;BME280;4604;48.616;9.548;2024-01-11T05:37:49;97790.66;;;-6.45;96.00
9139;BME280;4604;48.616;9.548;2024-01-11T05:40:16;97793.25;;;-6.50;96.00
9139;BME280;4604;48.616;9.548;2024-01-11T05:42:42;97795.84;;;-6.53;96.35
9139;BME280;4604;48.616;9.548;2024-01-11T05:45:10;97804.38;;;-6.49;96.21
9139;BME280;4604;48.616;9.548;2024-01-11T05:47:37;97801.88;;;-6.55;95.92
9139;BME280;4604;48.616;9.548;2024-01-11T05:50:05;97812.09;;;-6.52;95.54
9139;BME280;4604;48.616;9.548;2024-01-11T05:52:31;97803.53;;;-6.51;96.25
9139;BME280;4604;48.616;9.548;2024-01-11T05:54:58;97807.00;;;-6.55;96.49
9139;BME280;4604;48.616;9.548;2024-01-11T05:57:25;97797.59;;;-6.56;96.33
9139;BME280;4604;48.616;9.548;2024-01-11T05:59:52;97795.75;;;-6.42;96.59
9139;BME280;4604;48.616;9.548;2024-01-11T06:02:20;97821.38;;;-6.37;97.44
9139;BME280;4604;48.616;9.548;2024-01-11T06:04:48;97820.69;;;-6.56;98.07
9139;BME280;4604;48.616;9.548;2024-01-11T06:07:15;97776.44;;;-6.86;98.88
9139;BME280;4604;48.616;9.548;2024-01-11T06:09:41;97843.59;;;-6.30;99.23
9139;BME280;4604;48.616;9.548;2024-01-11T06:12:08;97840.22;;;-6.34;98.96
9139;BME280;4604;48.616;9.548;2024-01-11T06:14:35;97842.88;;;-6.46;99.58
9139;BME280;4604;48.616;9.548;2024-01-11T06:17:02;97842.09;;;-6.57;100.00
9139;BME280;4604;48.616;9.548;2024-01-11T06:19:30;97842.97;;;-6.61;100.00
9139;BME280;4604;48.616;9.548;2024-01-11T06:21:57;97838.69;;;-6.59;100.00
9139;BME280;4604;48.616;9.548;2024-01-11T06:24:23;97840.34;;;-6.52;100.00
9139;BME280;4604;48.616;9.548;2024-01-11T06:26:50;97812.22;;;-6.66;100.00
9139;BME280;4604;48.616;9.548;2024-01-11T06:29:17;97824.91;;;-6.49;100.00
9139;BME280;4604;48.616;9.548;2024-01-11T06:31:42;97837.78;;;-6.51;100.00
9139;BME280;4604;48.616;9.548;2024-01-11T06:34:09;97845.47;;;-6.52;100.00
9139;BME280;4604;48.616;9.548;2024-01-11T06:36:37;97846.34;;;-6.56;99.64
9139;BME280;4604;48.616;9.548;2024-01-11T06:39:04;97848.06;;;-6.57;99.46
9139;BME280;4604;48.616;9.548;2024-01-11T06:41:30;97854.06;;;-6.53;99.37
9139;BME280;4604;48.616;9.548;2024-01-11T06:43:57;97848.91;;;-6.52;99.21
9139;BME280;4604;48.616;9.548;2024-01-11T06:46:24;97837.81;;;-6.58;98.23
9139;BME280;4604;48.616;9.548;2024-01-11T06:48:50;97856.56;;;-6.46;98.11
9139;BME280;4604;48.616;9.548;2024-01-11T06:51:20;97848.03;;;-6.52;98.27
9139;BME280;4604;48.616;9.548;2024-01-11T06:53:48;97861.66;;;-6.44;98.05
9139;BME280;4604;48.616;9.548;2024-01-11T06:56:16;97855.66;;;-6.38;98.14
9139;BME280;4604;48.616;9.548;2024-01-11T06:58:44;97853.09;;;-6.41;98.11
9139;BME280;4604;48.616;9.548;2024-01-11T07:01:11;97848.78;;;-6.36;98.31
9139;BME280;4604;48.616;9.548;2024-01-11T07:03:38;97852.13;;;-6.30;97.96
9139;BME280;4604;48.616;9.548;2024-01-11T07:06:06;97853.03;;;-6.34;97.97
9139;BME280;4604;48.616;9.548;2024-01-11T07:08:32;97869.34;;;-6.36;98.36
9139;BME280;4604;48.616;9.548;2024-01-11T07:11:01;97871.91;;;-6.38;98.32
9139;BME280;4604;48.616;9.548;2024-01-11T07:13:28;97869.38;;;-6.41;98.52
9139;BME280;4604;48.616;9.548;2024-01-11T07:15:55;97882.09;;;-6.30;97.91
9139;BME280;4604;48.616;9.548;2024-01-11T07:18:23;97864.19;;;-6.38;97.63
9139;BME280;4604;48.616;9.548;2024-01-11T07:20:50;97876.13;;;-6.31;97.61
9139;BME280;4604;48.616;9.548;2024-01-11T07:23:17;97891.50;;;-6.26;97.03
9139;BME280;4604;48.616;9.548;2024-01-11T07:25:44;97885.53;;;-6.27;96.91
9139;BME280;4604;48.616;9.548;2024-01-11T07:28:12;97888.91;;;-6.25;96.72
9139;BME280;4604;48.616;9.548;2024-01-11T07:30:38;97889.81;;;-6.29;96.84
9139;BME280;4604;48.616;9.548;2024-01-11T07:33:06;97881.22;;;-6.29;96.97
9139;BME280;4604;48.616;9.548;2024-01-11T07:35:32;97875.25;;;-6.30;96.94
9139;BME280;4604;48.616;9.548;2024-01-11T07:37:59;97882.94;;;-6.28;96.85
9139;BME280;4604;48.616;9.548;2024-01-11T07:40:26;97876.09;;;-6.26;96.55
9139;BME280;4604;48.616;9.548;2024-01-11T07:42:54;97850.53;;;-6.43;96.43
9139;BME280;4604;48.616;9.548;2024-01-11T07:45:22;97873.44;;;-6.20;95.79
9139;BME280;4604;48.616;9.548;2024-01-11T07:47:49;97871.75;;;-6.21;95.01
9139;BME280;4604;48.616;9.548;2024-01-11T07:50:15;97884.59;;;-6.22;95.16
9139;BME280;4604;48.616;9.548;2024-01-11T07:52:42;97893.94;;;-6.12;95.24
9139;BME280;4604;48.616;9.548;2024-01-11T07:55:09;97893.81;;;-5.97;94.45
9139;BME280;4604;48.616;9.548;2024-01-11T07:57:38;97874.22;;;-6.09;94.96
9139;BME280;4604;48.616;9.548;2024-01-11T08:00:06;97882.78;;;-6.10;95.65
9139;BME280;4604;48.616;9.548;2024-01-11T08:02:34;97894.66;;;-5.95;96.24
9139;BME280;4604;48.616;9.548;2024-01-11T08:05:03;97909.94;;;-5.86;96.66
9139;BME280;4604;48.616;9.548;2024-01-11T08:07:30;97911.53;;;-5.74;96.51
9139;BME280;4604;48.616;9.548;2024-01-11T08:09:56;97906.41;;;-5.74;96.49
9139;BME280;4604;48.616;9.548;2024-01-11T08:12:23;97913.13;;;-5.61;96.54
9139;BME280;4604;48.616;9.548;2024-01-11T08:14:50;97918.19;;;-5.53;96.08
9139;BME280;4604;48.616;9.548;2024-01-11T08:17:17;97935.19;;;-5.40;96.19
9139;BME280;4604;48.616;9.548;2024-01-11T08:19:45;97901.06;;;-5.55;96.18
9139;BME280;4604;48.616;9.548;2024-01-11T08:22:11;97954.72;;;-5.22;95.43
9139;BME280;4604;48.616;9.548;2024-01-11T08:24:38;97941.88;;;-5.25;95.03
9139;BME280;4604;48.616;9.548;2024-01-11T08:27:05;97954.72;;;-5.22;95.80
9139;BME280;4604;48.616;9.548;2024-01-11T08:29:33;97952.91;;;-5.15;96.67
9139;BME280;4604;48.616;9.548;2024-01-11T08:32:00;97950.31;;;-5.12;97.36
9139;BME280;4604;48.616;9.548;2024-01-11T08:34:29;97946.81;;;-5.08;97.22
9139;BME280;4604;48.616;9.548;2024-01-11T08:36:57;97966.50;;;-5.02;97.46
9139;BME280;4604;48.616;9.548;2024-01-11T08:39:24;97948.59;;;-5.14;97.84
9139;BME280;4604;48.616;9.548;2024-01-11T08:41:51;97980.97;;;-4.92;98.00
9139;BME280;4604;48.616;9.548;2024-01-11T08:44:18;97947.63;;;-5.03;98.44
9139;BME280;4604;48.616;9.548;2024-01-11T08:46:45;97971.41;;;-4.82;98.69
9139;BME280;4604;48.616;9.548;2024-01-11T08:49:11;97980.72;;;-4.70;98.46
9139;BME280;4604;48.616;9.548;2024-01-11T08:51:38;97950.72;;;-4.76;98.65
9139;BME280;4604;48.616;9.548;2024-01-11T08:54:06;97941.25;;;-4.74;98.46
9139;BME280;4604;48.616;9.548;2024-01-11T08:56:34;97963.19;;;-4.45;98.32
9139;BME280;4604;48.616;9.548;2024-01-11T08:59:02;97938.34;;;-4.49;98.26
9139;BME280;4604;48.616;9.548;2024-01-11T09:01:28;97962.00;;;-4.23;98.19
9139;BME280;4604;48.616;9.548;2024-01-11T09:03:55;97961.81;;;-4.11;97.72
9139;BME280;4604;48.616;9.548;2024-01-11T09:06:23;97953.88;;;-3.98;96.79
9139;BME280;4604;48.616;9.548;2024-01-11T09:08:50;97958.00;;;-3.87;96.26
9139;BME280;4604;48.616;9.548;2024-01-11T09:11:19;97946.63;;;-3.75;96.45
9139;BME280;4604;48.616;9.548;2024-01-11T09:13:45;97943.91;;;-3.67;96.03
9139;BME280;4604;48.616;9.548;2024-01-11T09:16:14;97948.78;;;-3.52;94.74
9139;BME280;4604;48.616;9.548;2024-01-11T09:18:42;97946.13;;;-3.47;94.57
9139;BME280;4604;48.616;9.548;2024-01-11T09:21:09;97943.41;;;-3.39;94.22
9139;BME280;4604;48.616;9.548;2024-01-11T09:23:35;97913.63;;;-3.57;93.58
9139;BME280;4604;48.616;9.548;2024-01-11T09:26:02;97953.63;;;-3.33;94.29
9139;BME280;4604;48.616;9.548;2024-01-11T09:28:31;97947.63;;;-3.35;93.41
9139;BME280;4604;48.616;9.548;2024-01-11T09:30:58;97953.50;;;-3.27;92.09
9139;BME280;4604;48.616;9.548;2024-01-11T09:33:27;97953.50;;;-3.27;92.17
9139;BME280;4604;48.616;9.548;2024-01-11T09:35:54;97949.09;;;-3.22;93.26
9139;BME280;4604;48.616;9.548;2024-01-11T09:38:21;97936.09;;;-3.16;93.77
9139;BME280;4604;48.616;9.548;2024-01-11T09:40:57;97939.66;;;-3.21;93.59
9139;BME280;4604;48.616;9.548;2024-01-11T09:43:27;97959.41;;;-3.22;92.50
9139;BME280;4604;48.616;9.548;2024-01-11T09:45:56;97961.97;;;-3.19;92.53
9139;BME280;4604;48.616;9.548;2024-01-11T09:48:23;97956.50;;;-3.50;94.99
9139;BME280;4604;48.616;9.548;2024-01-11T09:50:52;97965.38;;;-3.65;96.10
9139;BME280;4604;48.616;9.548;2024-01-11T09:53:21;97956.81;;;-3.69;96.98
9139;BME280;4604;48.616;9.548;2024-01-11T09:55:48;97955.97;;;-3.69;97.57
9139;BME280;4604;48.616;9.548;2024-01-11T09:58:18;97955.81;;;-3.60;96.77
9139;BME280;4604;48.616;9.548;2024-01-11T10:00:46;97954.22;;;-3.67;96.85
9139;BME280;4604;48.616;9.548;2024-01-11T10:03:14;97960.06;;;-3.56;96.99
9139;BME280;4604;48.616;9.548;2024-01-11T10:05:41;97949.09;;;-3.69;98.23
9139;BME280;4604;48.616;9.548;2024-01-11T10:08:09;97959.91;;;-3.48;97.08
9139;BME280;4604;48.616;9.548;2024-01-11T10:10:36;97962.97;;;-3.26;96.69
9139;BME280;4604;48.616;9.548;2024-01-11T10:13:04;97964.72;;;-3.30;95.65
9139;BME280;4604;48.616;9.548;2024-01-11T10:15:31;97943.16;;;-3.27;95.13
9139;BME280;4604;48.616;9.548;2024-01-11T10:17:58;97974.69;;;-3.10;95.04
9139;BME280;4604;48.616;9.548;2024-01-11T10:20:26;97963.97;;;-3.35;94.68
9139;BME280;4604;48.616;9.548;2024-01-11T10:22:56;97966.44;;;-3.29;95.16
9139;BME280;4604;48.616;9.548;2024-01-11T10:25:23;97952.28;;;-3.54;96.80
9139;BME280;4604;48.616;9.548;2024-01-11T10:27:50;97960.00;;;-3.54;98.83
9139;BME280;4604;48.616;9.548;2024-01-11T10:30:17;97945.06;;;-3.35;97.72
9139;BME280;4604;48.616;9.548;2024-01-11T10:32:45;97923.84;;;-3.51;96.94
9139;BME280;4604;48.616;9.548;2024-01-11T10:35:13;97941.41;;;-3.72;98.63
9139;BME280;4604;48.616;9.548;2024-01-11T10:37:43;97937.94;;;-3.71;98.93
9139;BME280;4604;48.616;9.548;2024-01-11T10:40:10;97914.38;;;-3.51;97.86
9139;BME280;4604;48.616;9.548;2024-01-11T10:42:41;97922.41;;;-3.21;96.69
9139;BME280;4604;48.616;9.548;2024-01-11T10:45:13;97924.63;;;-3.03;96.00
9139;BME280;4604;48.616;9.548;2024-01-11T10:47:50;97929.53;;;-2.90;95.60
9139;BME280;4604;48.616;9.548;2024-01-11T10:50:18;97929.28;;;-2.78;95.13
9139;BME280;4604;48.616;9.548;2024-01-11T10:52:58;97923.16;;;-2.72;94.45
9139;BME280;4604;48.616;9.548;2024-01-11T10:55:30;97929.69;;;-2.56;94.88
9139;BME280;4604;48.616;9.548;2024-01-11T10:57:59;97921.53;;;-2.39;93.70
9139;BME280;4604;48.616;9.548;2024-01-11T11:00:27;97928.22;;;-2.29;93.79
9139;BME280;4604;48.616;9.548;2024-01-11T11:02:56;97902.75;;;-2.46;91.24
9139;BME280;4604;48.616;9.548;2024-01-11T11:05:25;97922.25;;;-2.32;90.91
9139;BME280;4604;48.616;9.548;2024-01-11T11:07:55;97887.53;;;-2.60;90.02
9139;BME280;4604;48.616;9.548;2024-01-11T11:10:24;97929.25;;;-2.38;89.43
9139;BME280;4604;48.616;9.548;2024-01-11T11:12:54;97939.47;;;-2.31;89.84
9139;BME280;4604;48.616;9.548;2024-01-11T11:15:23;97936.00;;;-2.32;90.46
9139;BME280;4604;48.616;9.548;2024-01-11T11:17:50;97941.09;;;-2.27;90.11
9139;BME280;4604;48.616;9.548;2024-01-11T11:20:18;97955.50;;;-2.17;88.36
9139;BME280;4604;48.616;9.548;2024-01-11T11:22:49;97946.22;;;-2.24;90.33
9139;BME280;4604;48.616;9.548;2024-01-11T11:25:31;97958.88;;;-2.13;88.58
9139;BME280;4604;48.616;9.548;2024-01-11T11:27:58;97947.16;;;-2.28;90.19
9139;BME280;4604;48.616;9.548;2024-01-11T11:30:26;97892.63;;;-2.56;90.45
9139;BME280;4604;48.616;9.548;2024-01-11T11:32:54;97925.53;;;-2.24;90.27
9139;BME280;4604;48.616;9.548;2024-01-11T11:35:23;97939.63;;;-2.02;89.71
9139;BME280;4604;48.616;9.548;2024-01-11T11:37:54;97942.41;;;-2.09;89.70
9139;BME280;4604;48.616;9.548;2024-01-11T11:40:21;97940.69;;;-2.10;89.43
9139;BME280;4604;48.616;9.548;2024-01-11T11:42:49;97929.22;;;-2.00;89.38
9139;BME280;4604;48.616;9.548;2024-01-11T11:45:24;97960.56;;;-1.77;89.01
9139;BME280;4604;48.616;9.548;2024-01-11T11:47:51;97940.00;;;-1.81;88.90
9139;BME280;4604;48.616;9.548;2024-01-11T11:50:21;97933.78;;;-1.74;89.07
9139;BME280;4604;48.616;9.548;2024-01-11T11:52:53;97915.44;;;-1.65;89.45
9139;BME280;4604;48.616;9.548;2024-01-11T11:55:22;97912.22;;;-1.42;88.87
9139;BME280;4604;48.616;9.548;2024-01-11T11:57:51;97908.59;;;-1.35;88.55
9139;BME280;4604;48.616;9.548;2024-01-11T12:00:19;97840.47;;;-1.68;88.78
9139;BME280;4604;48.616;9.548;2024-01-11T12:02:47;97897.22;;;-1.29;87.86
9139;BME280;4604;48.616;9.548;2024-01-11T12:05:14;97896.06;;;-1.19;87.47
9139;BME280;4604;48.616;9.548;2024-01-11T12:07:41;97896.81;;;-1.15;87.52
9139;BME280;4604;48.616;9.548;2024-01-11T12:10:07;97852.44;;;-1.33;85.68
9139;BME280;4604;48.616;9.548;2024-01-11T12:12:37;97901.88;;;-1.11;85.45
9139;BME280;4604;48.616;9.548;2024-01-11T12:15:07;97887.28;;;-1.13;84.00
9139;BME280;4604;48.616;9.548;2024-01-11T12:17:34;97872.09;;;-1.25;84.76
9139;BME280;4604;48.616;9.548;2024-01-11T12:20:01;97873.75;;;-1.23;85.39
9139;BME280;4604;48.616;9.548;2024-01-11T12:22:28;97850.69;;;-1.32;85.06
9139;BME280;4604;48.616;9.548;2024-01-11T12:24:55;97878.53;;;-1.09;85.66
9139;BME280;4604;48.616;9.548;2024-01-11T12:27:22;97807.72;;;-1.39;85.36
9139;BME280;4604;48.616;9.548;2024-01-11T12:29:49;97854.06;;;-0.99;84.31
9139;BME280;4604;48.616;9.548;2024-01-11T12:32:18;97869.56;;;-0.97;85.41
9139;BME280;4604;48.616;9.548;2024-01-11T12:34:45;97837.13;;;-1.11;85.07
9139;BME280;4604;48.616;9.548;2024-01-11T12:37:12;97845.59;;;-1.05;85.29
9139;BME280;4604;48.616;9.548;2024-01-11T12:39:40;97820.13;;;-1.19;85.62
9139;BME280;4604;48.616;9.548;2024-01-11T12:42:06;97840.44;;;-1.05;85.48
9139;BME280;4604;48.616;9.548;2024-01-11T12:44:35;97866.06;;;-0.96;85.49
9139;BME280;4604;48.616;9.548;2024-01-11T12:47:03;97862.41;;;-0.89;85.51
9139;BME280;4604;48.616;9.548;2024-01-11T12:49:32;97848.41;;;-0.83;84.69
9139;BME280;4604;48.616;9.548;2024-01-11T12:51:59;97830.41;;;-1.18;85.00
9139;BME280;4604;48.616;9.548;2024-01-11T12:54:26;97860.97;;;-0.70;85.06
9139;BME280;4604;48.616;9.548;2024-01-11T12:56:53;97816.09;;;-1.30;85.45
9139;BME280;4604;48.616;9.548;2024-01-11T12:59:25;97836.75;;;-0.98;85.32
9139;BME280;4604;48.616;9.548;2024-01-11T13:01:52;97805.47;;;-1.20;85.05
9139;BME280;4604;48.616;9.548;2024-01-11T13:04:18;97873.91;;;-0.70;84.47
9139;BME280;4604;48.616;9.548;2024-01-11T13:06:49;97868.63;;;-0.67;84.26
9139;BME280;4604;48.616;9.548;2024-01-11T13:09:16;97860.25;;;-0.75;85.08
9139;BME280;4604;48.616;9.548;2024-01-11T13:11:44;97856.63;;;-0.69;85.74
9139;BME280;4604;48.616;9.548;2024-01-11T13:14:11;97859.47;;;-0.49;84.49
9139;BME280;4604;48.616;9.548;2024-01-11T13:16:44;97860.78;;;-0.37;83.38
9139;BME280;4604;48.616;9.548;2024-01-11T13:19:11;97850.03;;;-0.51;83.57
9139;BME280;4604;48.616;9.548;2024-01-11T13:21:37;97856.69;;;-0.44;83.24
9139;BME280;4604;48.616;9.548;2024-01-11T13:24:06;97847.97;;;-0.41;83.16
9139;BME280;4604;48.616;9.548;2024-01-11T13:26:33;97835.81;;;-0.39;82.57
9139;BME280;4604;48.616;9.548;2024-01-11T13:29:02;97857.88;;;-0.26;82.30
9139;BME280;4604;48.616;9.548;2024-01-11T13:31:28;97858.84;;;-0.30;82.46
9139;BME280;4604;48.616;9.548;2024-01-11T13:33:55;97861.41;;;-0.29;83.35